createdAt,value
2023-03-11T00:01:43.519Z,7.15
2023-03-11T00:03:36.539Z,7.16
2023-03-11T00:05:34.515Z,7.16
2023-03-11T00:07:27.661Z,7.16
2023-03-11T00:09:20.607Z,7.15
2023-03-11T00:11:13.659Z,7.15
2023-03-11T00:13:08.554Z,7.14
2023-03-11T00:15:01.605Z,7.14
2023-03-11T00:16:54.754Z,7.14
2023-03-11T00:18:51.775Z,7.12
2023-03-11T00:20:46.927Z,7.10
2023-03-11T00:22:39.949Z,7.10
2023-03-11T00:24:34.029Z,7.09
2023-03-11T00:26:27.533Z,7.08
2023-03-11T00:28:22.484Z,7.08
2023-03-11T00:30:17.547Z,7.07
2023-03-11T00:32:10.528Z,7.07
2023-03-11T00:34:03.707Z,7.07
2023-03-11T00:35:57.231Z,7.04
2023-03-11T00:37:54.718Z,7.02
2023-03-11T00:39:48.065Z,7.01
2023-03-11T00:41:40.974Z,7.00
2023-03-11T00:43:34.356Z,6.98
2023-03-11T00:45:29.108Z,6.98
2023-03-11T00:47:22.202Z,6.98
2023-03-11T00:49:15.250Z,6.98
2023-03-11T00:51:13.806Z,6.99
2023-03-11T00:53:07.077Z,6.99
2023-03-11T00:55:00.233Z,6.99
2023-03-11T00:56:53.393Z,7.00
2023-03-11T00:58:46.546Z,7.00
2023-03-11T01:00:40.309Z,6.98
2023-03-11T01:02:35.408Z,6.97
2023-03-11T01:04:28.512Z,6.98
2023-03-11T01:06:22.490Z,6.98
2023-03-11T01:08:15.545Z,7.00
2023-03-11T01:10:09.911Z,6.99
2023-03-11T01:12:03.015Z,7.01
2023-03-11T01:13:56.170Z,7.02
2023-03-11T01:15:49.229Z,7.02
2023-03-11T01:17:42.479Z,7.02
2023-03-11T01:19:36.243Z,7.01
2023-03-11T01:21:29.297Z,7.00
2023-03-11T01:23:23.062Z,6.98
2023-03-11T01:25:18.264Z,6.97
2023-03-11T01:27:11.338Z,6.95
2023-03-11T01:29:04.365Z,6.94
2023-03-11T01:30:57.438Z,6.95
2023-03-11T01:32:52.181Z,6.94
2023-03-11T01:34:45.356Z,6.93
2023-03-11T01:36:38.827Z,6.92
2023-03-11T01:38:32.180Z,6.91
2023-03-11T01:40:54.510Z,6.91
2023-03-11T01:42:47.970Z,6.91
2023-03-11T01:44:41.227Z,6.90
2023-03-11T01:47:00.188Z,6.89
2023-03-11T01:49:02.802Z,6.88
2023-03-11T01:50:58.877Z,6.86
2023-03-11T01:52:52.037Z,6.87
2023-03-11T01:54:45.091Z,6.87
2023-03-11T01:56:41.366Z,6.87
2023-03-11T01:58:41.711Z,6.87
2023-03-11T02:00:36.624Z,6.86
2023-03-11T02:02:36.045Z,6.87
2023-03-11T02:04:29.553Z,6.87
2023-03-11T02:06:23.927Z,6.87
2023-03-11T02:08:17.632Z,6.88
2023-03-11T02:10:13.545Z,6.87
2023-03-11T02:12:09.668Z,6.87
2023-03-11T02:14:06.659Z,6.86
2023-03-11T02:16:00.775Z,6.86
2023-03-11T02:17:56.512Z,6.86
2023-03-11T02:20:16.696Z,6.86
2023-03-11T02:22:11.601Z,6.85
2023-03-11T02:24:18.879Z,6.85
2023-03-11T02:26:33.536Z,6.85
2023-03-11T02:28:28.020Z,6.82
2023-03-11T02:30:23.936Z,6.83
2023-03-11T02:32:18.706Z,6.82
2023-03-11T02:34:25.625Z,6.82
2023-03-11T02:36:37.726Z,6.82
2023-03-11T02:38:31.161Z,6.82
2023-03-11T02:40:24.430Z,6.83
2023-03-11T02:42:28.016Z,6.82
2023-03-11T02:44:21.372Z,6.80
2023-03-11T02:46:15.447Z,6.80
2023-03-11T02:48:12.062Z,6.80
2023-03-11T02:50:06.712Z,6.80
2023-03-11T02:51:59.713Z,6.81
2023-03-11T02:54:00.036Z,6.81
2023-03-11T02:55:54.517Z,6.80
2023-03-11T02:57:48.393Z,6.80
2023-03-11T02:59:41.314Z,6.80
2023-03-11T03:01:34.999Z,6.80
2023-03-11T03:03:28.057Z,6.80
2023-03-11T03:05:22.748Z,6.80
2023-03-11T03:07:15.843Z,6.80
2023-03-11T03:09:08.843Z,6.79
2023-03-11T03:11:03.534Z,6.78
2023-03-11T03:12:56.596Z,6.78
2023-03-11T03:14:49.629Z,6.77
2023-03-11T03:16:42.910Z,6.77
2023-03-11T03:18:36.243Z,6.76
2023-03-11T03:20:29.296Z,6.75
2023-03-11T03:22:27.601Z,6.75
2023-03-11T03:24:21.639Z,6.73
2023-03-11T03:26:14.899Z,6.72
2023-03-11T03:28:08.984Z,6.70
2023-03-11T03:30:04.884Z,6.69
2023-03-11T03:31:58.736Z,6.68
2023-03-11T03:33:52.746Z,6.58
2023-03-11T03:35:46.413Z,6.47
2023-03-11T03:37:46.317Z,6.36
2023-03-11T03:39:39.682Z,6.26
2023-03-11T03:41:33.738Z,6.12
2023-03-11T03:43:27.319Z,5.98
2023-03-11T03:45:20.669Z,5.83
2023-03-11T03:47:14.225Z,5.70
2023-03-11T03:49:07.273Z,5.57
2023-03-11T03:51:09.169Z,5.47
2023-03-11T03:53:03.411Z,5.37
2023-03-11T03:54:56.464Z,5.28
2023-03-11T03:56:49.613Z,5.17
2023-03-11T03:58:43.386Z,5.03
2023-03-11T04:00:36.739Z,4.90
2023-03-11T04:02:29.902Z,4.79
2023-03-11T04:04:23.254Z,4.70
2023-03-11T04:06:24.499Z,4.62
2023-03-11T04:08:21.925Z,4.53
2023-03-11T04:10:16.185Z,4.45
2023-03-11T04:12:17.676Z,4.39
2023-03-11T04:14:10.933Z,4.33
2023-03-11T04:16:08.326Z,4.26
2023-03-11T04:18:01.537Z,4.19
2023-03-11T04:19:54.899Z,4.14
2023-03-11T04:21:47.846Z,4.08
2023-03-11T04:23:41.519Z,3.99
2023-03-11T04:25:35.485Z,3.90
2023-03-11T04:27:29.047Z,3.83
2023-03-11T04:29:22.299Z,3.76
2023-03-11T04:31:17.188Z,3.69
2023-03-11T04:33:10.241Z,3.61
2023-03-11T04:35:05.136Z,3.52
2023-03-11T04:36:58.593Z,3.44
2023-03-11T04:38:57.176Z,3.35
2023-03-11T04:40:51.348Z,3.27
2023-03-11T04:42:44.359Z,3.20
2023-03-11T04:44:37.655Z,3.12
2023-03-11T04:46:31.574Z,3.05
2023-03-11T04:48:27.215Z,2.98
2023-03-11T04:50:21.516Z,2.90
2023-03-11T04:52:14.568Z,2.83
2023-03-11T04:54:07.921Z,2.77
2023-03-11T04:56:00.976Z,2.71
2023-03-11T04:57:54.289Z,2.65
2023-03-11T04:59:47.999Z,2.60
2023-03-11T05:01:41.258Z,2.54
2023-03-11T05:03:34.937Z,2.50
2023-03-11T05:05:27.967Z,2.47
2023-03-11T05:07:21.020Z,2.43
2023-03-11T05:09:14.478Z,2.38
2023-03-11T05:11:08.959Z,2.32
2023-03-11T05:13:02.526Z,2.28
2023-03-11T05:14:58.238Z,2.25
2023-03-11T05:16:51.391Z,2.22
2023-03-11T05:18:44.750Z,2.18
2023-03-11T05:20:39.435Z,2.14
2023-03-11T05:22:32.591Z,2.08
2023-03-11T05:24:26.363Z,2.02
2023-03-11T05:26:19.412Z,1.97
2023-03-11T05:28:13.281Z,1.93
2023-03-11T05:30:11.153Z,1.89
2023-03-11T05:32:05.521Z,1.85
2023-03-11T05:33:58.574Z,1.80
2023-03-11T05:35:52.125Z,1.77
2023-03-11T05:37:45.700Z,1.74
2023-03-11T05:39:38.960Z,1.71
2023-03-11T05:41:32.328Z,1.67
2023-03-11T05:43:25.884Z,1.62
2023-03-11T05:45:20.465Z,1.59
2023-03-11T05:47:14.130Z,1.56
2023-03-11T05:49:07.386Z,1.54
2023-03-11T05:51:00.457Z,1.53
2023-03-11T05:52:53.592Z,1.51
2023-03-11T05:54:51.154Z,1.49
2023-03-11T05:56:46.563Z,1.46
2023-03-11T05:58:39.606Z,1.41
2023-03-11T06:00:32.650Z,1.36
2023-03-11T06:02:26.942Z,1.31
2023-03-11T06:04:21.518Z,1.28
2023-03-11T06:06:14.986Z,1.25
2023-03-11T06:08:08.230Z,1.22
2023-03-11T06:10:01.795Z,1.19
2023-03-11T06:11:55.259Z,1.17
2023-03-11T06:13:53.426Z,1.17
2023-03-11T06:15:46.483Z,1.18
2023-03-11T06:17:40.073Z,1.17
2023-03-11T06:19:33.401Z,1.17
2023-03-11T06:21:27.164Z,1.17
2023-03-11T06:23:20.416Z,1.16
2023-03-11T06:25:13.568Z,1.16
2023-03-11T06:27:09.390Z,1.16
2023-03-11T06:29:02.956Z,1.16
2023-03-11T06:30:58.852Z,1.15
2023-03-11T06:32:51.838Z,1.14
2023-03-11T06:34:45.378Z,1.13
2023-03-11T06:36:38.900Z,1.13
2023-03-11T06:38:33.733Z,1.12
2023-03-11T06:40:27.701Z,1.12
2023-03-11T06:42:23.961Z,1.11
2023-03-11T06:44:17.799Z,1.09
2023-03-11T06:46:13.133Z,1.08
2023-03-11T06:48:06.555Z,1.07
2023-03-11T06:50:06.375Z,1.05
2023-03-11T06:51:59.930Z,1.04
2023-03-11T06:53:53.904Z,1.01
2023-03-11T06:56:18.085Z,0.99
2023-03-11T06:58:14.513Z,0.95
2023-03-11T07:00:12.569Z,0.91
2023-03-11T07:02:13.535Z,0.87
2023-03-11T07:04:07.743Z,0.85
2023-03-11T07:06:03.964Z,0.82
2023-03-11T07:07:58.511Z,0.80
2023-03-11T07:09:55.965Z,0.79
2023-03-11T07:11:49.217Z,0.79
2023-03-11T07:13:47.901Z,0.78
2023-03-11T07:15:41.053Z,0.79
2023-03-11T07:17:34.313Z,0.79
2023-03-11T07:19:28.382Z,0.79
2023-03-11T07:21:23.585Z,0.79
2023-03-11T07:23:16.761Z,0.79
2023-03-11T07:25:10.403Z,0.77
2023-03-11T07:27:03.569Z,0.76
2023-03-11T07:28:57.532Z,0.77
2023-03-11T07:30:51.245Z,0.78
2023-03-11T07:32:44.566Z,0.80
2023-03-11T07:34:37.908Z,0.81
2023-03-11T07:36:31.982Z,0.81
2023-03-11T07:38:25.561Z,0.79
2023-03-11T07:40:18.904Z,0.77
2023-03-11T07:42:12.057Z,0.77
2023-03-11T07:44:05.420Z,0.77
2023-03-11T07:46:05.851Z,0.76
2023-03-11T07:47:58.784Z,0.77
2023-03-11T07:49:52.041Z,0.80
2023-03-11T07:51:45.292Z,0.83
2023-03-11T07:53:40.616Z,0.85
2023-03-11T07:55:34.370Z,0.84
2023-03-11T07:57:27.732Z,0.83
2023-03-11T07:59:20.774Z,0.85
2023-03-11T08:01:17.326Z,0.84
2023-03-11T08:03:10.627Z,0.86
2023-03-11T08:05:04.018Z,0.86
2023-03-11T08:06:57.279Z,0.87
2023-03-11T08:08:51.574Z,0.88
2023-03-11T08:10:44.566Z,0.89
2023-03-11T08:12:37.961Z,0.90
2023-03-11T08:14:30.911Z,0.90
2023-03-11T08:16:25.204Z,0.91
2023-03-11T08:18:18.349Z,0.91
2023-03-11T08:20:12.222Z,0.90
2023-03-11T08:22:05.475Z,0.89
2023-03-11T08:24:01.008Z,0.88
2023-03-11T08:25:54.335Z,0.88
2023-03-11T08:27:48.309Z,0.88
2023-03-11T08:29:41.674Z,0.87
2023-03-11T08:31:35.719Z,0.88
2023-03-11T08:33:29.004Z,0.90
2023-03-11T08:35:22.350Z,0.92
2023-03-11T08:37:15.819Z,0.94
2023-03-11T08:39:09.579Z,0.93
2023-03-11T08:41:03.347Z,0.94
2023-03-11T08:42:57.021Z,0.94
2023-03-11T08:44:50.281Z,0.95
2023-03-11T08:46:43.783Z,0.96
2023-03-11T08:48:38.024Z,0.97
2023-03-11T08:50:33.468Z,0.97
2023-03-11T08:52:28.106Z,0.98
2023-03-11T08:54:21.152Z,0.97
2023-03-11T08:56:14.613Z,0.96
2023-03-11T08:58:07.866Z,0.94
2023-03-11T09:00:00.872Z,0.95
2023-03-11T09:01:53.974Z,0.95
2023-03-11T09:03:47.559Z,0.96
2023-03-11T09:05:40.965Z,0.98
2023-03-11T09:07:35.007Z,1.02
2023-03-11T09:09:28.627Z,1.04
2023-03-11T09:11:22.851Z,1.04
2023-03-11T09:13:15.825Z,1.04
2023-03-11T09:15:10.339Z,1.03
2023-03-11T09:17:04.206Z,1.02
2023-03-11T09:19:00.419Z,0.98
2023-03-11T09:20:58.438Z,0.94
2023-03-11T09:22:52.981Z,0.92
2023-03-11T09:24:53.004Z,0.91
2023-03-11T09:26:46.361Z,0.90
2023-03-11T09:28:40.430Z,0.91
2023-03-11T09:30:33.586Z,0.91
2023-03-11T09:32:26.873Z,0.92
2023-03-11T09:34:20.305Z,0.93
2023-03-11T09:36:16.025Z,0.96
2023-03-11T09:38:25.197Z,1.00
2023-03-11T09:40:23.694Z,0.99
2023-03-11T09:42:17.212Z,1.00
2023-03-11T09:44:19.864Z,0.97
2023-03-11T09:46:22.101Z,0.95
2023-03-11T09:48:33.913Z,0.95
2023-03-11T09:50:32.799Z,0.97
2023-03-11T09:52:38.150Z,1.01
2023-03-11T09:54:37.378Z,1.08
2023-03-11T09:56:31.626Z,1.18
2023-03-11T09:58:47.409Z,1.29
2023-03-11T10:00:41.273Z,1.41
2023-03-11T10:02:36.854Z,1.51
2023-03-11T10:04:44.984Z,1.60
2023-03-11T10:06:39.981Z,1.66
2023-03-11T10:09:03.258Z,1.70
2023-03-11T10:11:22.627Z,1.75
2023-03-11T10:13:25.691Z,1.81
2023-03-11T10:15:30.932Z,1.85
2023-03-11T10:17:33.142Z,1.85
2023-03-11T10:19:41.607Z,1.82
2023-03-11T10:22:02.713Z,1.83
2023-03-11T10:24:07.332Z,1.81
2023-03-11T10:26:10.826Z,1.77
2023-03-11T10:28:18.956Z,1.74
2023-03-11T10:30:34.002Z,1.71
2023-03-11T10:32:51.054Z,1.67
2023-03-11T10:34:49.635Z,1.64
2023-03-11T10:36:53.089Z,1.67
2023-03-11T10:38:48.401Z,1.73
2023-03-11T10:40:44.007Z,1.77
2023-03-11T10:42:38.332Z,1.78
2023-03-11T10:44:35.556Z,1.78
2023-03-11T10:46:29.196Z,1.78
2023-03-11T10:48:24.451Z,1.77
2023-03-11T10:50:19.851Z,1.75
2023-03-11T10:52:14.080Z,1.72
2023-03-11T10:54:07.044Z,1.70
2023-03-11T10:56:00.495Z,1.69
2023-03-11T10:58:05.724Z,1.71
2023-03-11T11:00:01.401Z,1.76
2023-03-11T11:02:23.899Z,1.80
2023-03-11T11:04:31.102Z,1.84
2023-03-11T11:06:32.647Z,1.88
2023-03-11T11:08:25.787Z,1.91
2023-03-11T11:10:23.742Z,1.91
2023-03-11T11:12:21.394Z,1.88
2023-03-11T11:14:14.594Z,1.85
2023-03-11T11:16:16.744Z,1.84
2023-03-11T11:18:24.274Z,1.86
2023-03-11T11:20:20.017Z,1.87
2023-03-11T11:22:18.087Z,1.90
2023-03-11T11:24:29.870Z,1.94
2023-03-11T11:26:27.703Z,1.98
2023-03-11T11:28:45.816Z,2.01
2023-03-11T11:30:56.569Z,2.02
2023-03-11T11:32:53.745Z,2.04
2023-03-11T11:35:14.783Z,2.03
2023-03-11T11:37:13.335Z,2.03
2023-03-11T11:39:16.044Z,2.02
2023-03-11T11:41:14.609Z,1.98
2023-03-11T11:43:42.493Z,1.94
2023-03-11T11:45:42.372Z,1.92
2023-03-11T11:47:38.015Z,1.91
2023-03-11T11:49:37.133Z,1.93
2023-03-11T11:51:35.822Z,1.98
2023-03-11T11:54:17.773Z,1.99
2023-03-11T11:56:11.249Z,1.97
2023-03-11T11:58:09.879Z,1.95
2023-03-11T12:00:06.783Z,1.90
2023-03-11T12:02:23.056Z,1.85
2023-03-11T12:04:50.825Z,1.81
2023-03-11T12:07:14.812Z,1.80
2023-03-11T12:09:32.646Z,1.80
2023-03-11T12:11:38.376Z,1.80
2023-03-11T12:14:02.357Z,1.78
2023-03-11T12:16:11.349Z,1.78
2023-03-11T12:18:15.343Z,1.77
2023-03-11T12:20:38.545Z,1.77
2023-03-11T12:22:51.572Z,1.79
2023-03-11T12:25:03.062Z,1.80
2023-03-11T12:27:00.657Z,1.80
2023-03-11T12:29:23.044Z,1.78
2023-03-11T12:31:16.982Z,1.77
2023-03-11T12:33:23.584Z,1.72
2023-03-11T12:35:28.242Z,1.69
2023-03-11T12:37:24.473Z,1.66
2023-03-11T12:39:25.165Z,1.63
2023-03-11T12:41:39.778Z,1.63
2023-03-11T12:43:34.306Z,1.61
2023-03-11T12:45:53.568Z,1.59
2023-03-11T12:47:53.971Z,1.57
2023-03-11T12:49:55.315Z,1.60
2023-03-11T12:52:11.694Z,1.69
2023-03-11T12:54:35.710Z,1.81
2023-03-11T12:56:44.942Z,1.92
2023-03-11T12:59:07.996Z,2.00
2023-03-11T13:01:22.889Z,2.06
2023-03-11T13:03:32.743Z,2.07
2023-03-11T13:06:00.671Z,2.06
2023-03-11T13:08:01.118Z,2.05
2023-03-11T13:10:12.375Z,1.99
2023-03-11T13:12:44.040Z,1.94
2023-03-11T13:14:37.456Z,1.92
2023-03-11T13:16:30.384Z,1.93
2023-03-11T13:18:26.671Z,1.97
2023-03-11T13:20:45.086Z,2.02
2023-03-11T13:22:43.488Z,2.05
2023-03-11T13:24:36.363Z,2.05
2023-03-11T13:26:34.549Z,2.06
2023-03-11T13:28:46.502Z,2.10
2023-03-11T13:30:46.877Z,2.12
2023-03-11T13:32:55.470Z,2.13
2023-03-11T13:35:22.997Z,2.12
2023-03-11T13:37:30.996Z,2.12
2023-03-11T13:39:33.063Z,2.14
2023-03-11T13:41:40.755Z,2.15
2023-03-11T13:43:35.235Z,2.17
2023-03-11T13:45:35.838Z,2.19
2023-03-11T13:47:30.454Z,2.21
2023-03-11T13:49:29.032Z,2.19
2023-03-11T13:51:44.179Z,2.15
2023-03-11T13:53:47.900Z,2.12
2023-03-11T13:55:48.299Z,2.12
2023-03-11T13:57:53.458Z,2.19
2023-03-11T13:59:52.755Z,2.25
2023-03-11T14:02:08.551Z,2.31
2023-03-11T14:04:01.688Z,2.36
2023-03-11T14:06:04.064Z,2.38
2023-03-11T14:08:21.485Z,2.43
2023-03-11T14:10:28.875Z,2.44
2023-03-11T14:12:21.785Z,2.43
2023-03-11T14:14:49.690Z,2.44
2023-03-11T14:16:46.674Z,2.41
2023-03-11T14:18:44.998Z,2.40
2023-03-11T14:20:38.795Z,2.40
2023-03-11T14:22:32.253Z,2.40
2023-03-11T14:24:28.606Z,2.41
2023-03-11T14:26:24.673Z,2.43
2023-03-11T14:28:21.823Z,2.42
2023-03-11T14:30:21.571Z,2.41
2023-03-11T14:32:25.440Z,2.40
2023-03-11T14:34:27.831Z,2.43
2023-03-11T14:36:21.578Z,2.45
2023-03-11T14:38:26.426Z,2.47
2023-03-11T14:40:32.896Z,2.48
2023-03-11T14:42:38.919Z,2.46
2023-03-11T14:44:36.270Z,2.43
2023-03-11T14:46:30.034Z,2.42
2023-03-11T14:48:32.917Z,2.45
2023-03-11T14:50:29.087Z,2.51
2023-03-11T14:52:33.554Z,2.55
2023-03-11T14:54:30.599Z,2.56
2023-03-11T14:56:26.689Z,2.56
2023-03-11T14:58:43.541Z,2.54
2023-03-11T15:00:42.713Z,2.52
2023-03-11T15:02:44.885Z,2.50
2023-03-11T15:04:40.131Z,2.50
2023-03-11T15:06:35.142Z,2.49
2023-03-11T15:08:31.676Z,2.47
2023-03-11T15:10:24.973Z,2.43
2023-03-11T15:12:35.848Z,2.39
2023-03-11T15:14:31.984Z,2.36
2023-03-11T15:16:29.331Z,2.33
2023-03-11T15:18:25.420Z,2.30
2023-03-11T15:20:37.119Z,2.29
2023-03-11T15:22:37.717Z,2.26
2023-03-11T15:24:33.476Z,2.24
2023-03-11T15:26:29.981Z,2.21
2023-03-11T15:28:24.422Z,2.18
2023-03-11T15:30:30.298Z,2.16
2023-03-11T15:32:36.752Z,2.14
2023-03-11T15:34:32.110Z,2.15
2023-03-11T15:36:39.512Z,2.14
2023-03-11T15:38:32.544Z,2.13
2023-03-11T15:40:43.912Z,2.12
2023-03-11T15:42:38.554Z,2.08
2023-03-11T15:44:41.455Z,2.05
2023-03-11T15:46:34.876Z,2.03
2023-03-11T15:48:30.125Z,2.02
2023-03-11T15:50:40.132Z,2.02
2023-03-11T15:52:36.175Z,2.00
2023-03-11T15:54:29.681Z,1.98
2023-03-11T15:56:25.191Z,1.96
2023-03-11T15:58:21.108Z,1.94
2023-03-11T16:00:16.683Z,1.93
2023-03-11T16:02:22.758Z,1.91
2023-03-11T16:04:18.691Z,1.90
2023-03-11T16:06:11.840Z,1.90
2023-03-11T16:08:05.011Z,1.91
2023-03-11T16:09:58.146Z,1.93
2023-03-11T16:11:51.094Z,1.94
2023-03-11T16:13:44.363Z,1.93
2023-03-11T16:15:38.201Z,1.92
2023-03-11T16:17:46.753Z,1.90
2023-03-11T16:19:43.263Z,1.85
2023-03-11T16:21:50.308Z,1.81
2023-03-11T16:23:51.551Z,1.79
2023-03-11T16:25:46.405Z,1.76
2023-03-11T16:27:39.326Z,1.71
2023-03-11T16:29:33.714Z,1.67
2023-03-11T16:31:28.332Z,1.63
2023-03-11T16:33:21.354Z,1.61
2023-03-11T16:35:15.316Z,1.60
2023-03-11T16:37:09.088Z,1.58
2023-03-11T16:39:03.662Z,1.55
2023-03-11T16:40:59.554Z,1.53
2023-03-11T16:42:57.948Z,1.51
2023-03-11T16:44:50.950Z,1.49
2023-03-11T16:46:44.005Z,1.44
2023-03-11T16:48:37.018Z,1.42
2023-03-11T16:50:30.031Z,1.40
2023-03-11T16:52:23.675Z,1.39
2023-03-11T16:54:16.784Z,1.36
2023-03-11T16:56:09.744Z,1.33
2023-03-11T16:58:02.782Z,1.30
2023-03-11T16:59:55.729Z,1.29
2023-03-11T17:01:48.720Z,1.28
2023-03-11T17:03:43.570Z,1.26
2023-03-11T17:05:36.908Z,1.25
2023-03-11T17:07:33.474Z,1.22
2023-03-11T17:09:26.415Z,1.22
2023-03-11T17:11:22.496Z,1.22
2023-03-11T17:13:18.826Z,1.21
2023-03-11T17:15:12.982Z,1.20
2023-03-11T17:17:08.071Z,1.18
2023-03-11T17:19:01.904Z,1.16
2023-03-11T17:20:54.959Z,1.14
2023-03-11T17:22:48.998Z,1.12
2023-03-11T17:24:44.954Z,1.10
2023-03-11T17:26:40.095Z,1.08
2023-03-11T17:28:37.713Z,1.04
2023-03-11T17:30:37.098Z,1.01
2023-03-11T17:32:31.809Z,0.99
2023-03-11T17:34:25.708Z,0.96
2023-03-11T17:36:20.150Z,0.95
2023-03-11T17:38:15.428Z,0.93
2023-03-11T17:40:10.194Z,0.91
2023-03-11T17:42:03.619Z,0.90
2023-03-11T17:43:56.754Z,0.87
2023-03-11T17:45:50.623Z,0.86
2023-03-11T17:47:44.392Z,0.84
2023-03-11T17:49:37.544Z,0.83
2023-03-11T17:51:30.595Z,0.82
2023-03-11T17:53:23.851Z,0.79
2023-03-11T17:55:16.945Z,0.77
2023-03-11T17:57:10.271Z,0.76
2023-03-11T17:59:03.726Z,0.74
2023-03-11T18:00:56.764Z,0.73
2023-03-11T18:02:51.604Z,0.70
2023-03-11T18:04:52.114Z,0.69
2023-03-11T18:06:45.539Z,0.67
2023-03-11T18:08:38.596Z,0.66
2023-03-11T18:10:31.954Z,0.64
2023-03-11T18:12:25.516Z,0.63
2023-03-11T18:14:19.786Z,0.61
2023-03-11T18:16:16.570Z,0.61
2023-03-11T18:18:09.572Z,0.60
2023-03-11T18:20:03.757Z,0.59
2023-03-11T18:21:57.576Z,0.59
2023-03-11T18:23:55.381Z,0.58
2023-03-11T18:25:52.733Z,0.58
2023-03-11T18:27:45.989Z,0.56
2023-03-11T18:29:39.248Z,0.56
2023-03-11T18:31:33.229Z,0.56
2023-03-11T18:33:26.373Z,0.54
2023-03-11T18:35:19.421Z,0.54
2023-03-11T18:37:12.479Z,0.53
2023-03-11T18:39:06.958Z,0.52
2023-03-11T18:41:00.939Z,0.51
2023-03-11T18:42:54.595Z,0.51
2023-03-11T18:44:47.757Z,0.51
2023-03-11T18:46:42.539Z,0.51
2023-03-11T18:48:35.805Z,0.51
2023-03-11T18:50:28.850Z,0.51
2023-03-11T18:52:22.828Z,0.51
2023-03-11T18:54:15.766Z,0.50
2023-03-11T18:56:12.260Z,0.50
2023-03-11T18:58:09.454Z,0.48
2023-03-11T19:00:03.929Z,0.45
2023-03-11T19:01:56.980Z,0.41
2023-03-11T19:03:55.405Z,0.39
2023-03-11T19:05:50.890Z,0.37
2023-03-11T19:07:44.634Z,0.34
2023-03-11T19:09:37.690Z,0.33
2023-03-11T19:11:30.940Z,0.32
2023-03-11T19:13:24.234Z,0.30
2023-03-11T19:15:18.987Z,0.29
2023-03-11T19:17:16.450Z,0.27
2023-03-11T19:19:11.671Z,0.27
2023-03-11T19:21:06.951Z,0.26
2023-03-11T19:23:00.237Z,0.25
2023-03-11T19:24:54.078Z,0.25
2023-03-11T19:26:47.699Z,0.25
2023-03-11T19:28:46.710Z,0.26
2023-03-11T19:30:42.039Z,0.25
2023-03-11T19:32:36.103Z,0.25
2023-03-11T19:34:35.211Z,0.23
2023-03-11T19:36:31.794Z,0.21
2023-03-11T19:38:26.017Z,0.19
2023-03-11T19:40:20.895Z,0.18
2023-03-11T19:42:20.430Z,0.17
2023-03-11T19:44:20.102Z,0.16
2023-03-11T19:46:21.335Z,0.15
2023-03-11T19:48:19.936Z,0.14
2023-03-11T19:50:17.477Z,0.11
2023-03-11T19:52:15.373Z,0.11
2023-03-11T19:54:16.123Z,0.10
2023-03-11T19:56:14.165Z,0.09
2023-03-11T19:58:09.627Z,0.08
2023-03-11T20:00:08.293Z,0.07
2023-03-11T20:02:08.426Z,0.07
2023-03-11T20:04:06.599Z,0.04
2023-03-11T20:06:06.712Z,0.01
2023-03-11T20:08:04.022Z,-0.03
2023-03-11T20:10:02.030Z,-0.04
2023-03-11T20:11:59.552Z,-0.05
2023-03-11T20:13:57.794Z,-0.06
2023-03-11T20:15:55.136Z,-0.08
2023-03-11T20:17:53.271Z,-0.09
2023-03-11T20:19:52.626Z,-0.10
2023-03-11T20:21:51.372Z,-0.11
2023-03-11T20:23:50.956Z,-0.12
2023-03-11T20:25:55.424Z,-0.12
2023-03-11T20:28:02.491Z,-0.14
2023-03-11T20:30:01.310Z,-0.14
2023-03-11T20:31:59.561Z,-0.14
2023-03-11T20:34:03.009Z,-0.14
2023-03-11T20:36:06.916Z,-0.17
2023-03-11T20:38:05.402Z,-0.17
2023-03-11T20:40:02.795Z,-0.18
2023-03-11T20:41:58.051Z,-0.22
2023-03-11T20:43:58.110Z,-0.23
2023-03-11T20:45:56.252Z,-0.23
2023-03-11T20:47:54.180Z,-0.24
2023-03-11T20:49:47.280Z,-0.25
2023-03-11T20:51:42.837Z,-0.26
2023-03-11T20:53:41.132Z,-0.26
2023-03-11T20:55:42.754Z,-0.27
2023-03-11T20:57:42.437Z,-0.29
2023-03-11T20:59:40.262Z,-0.30
2023-03-11T21:01:38.233Z,-0.29
2023-03-11T21:03:36.774Z,-0.30
2023-03-11T21:05:37.120Z,-0.28
2023-03-11T21:07:31.460Z,-0.28
2023-03-11T21:09:27.898Z,-0.31
2023-03-11T21:11:26.533Z,-0.31
2023-03-11T21:13:24.110Z,-0.32
2023-03-11T21:15:22.121Z,-0.32
2023-03-11T21:17:19.288Z,-0.31
2023-03-11T21:19:17.536Z,-0.31
2023-03-11T21:21:16.914Z,-0.31
2023-03-11T21:23:14.409Z,-0.30
2023-03-11T21:25:10.933Z,-0.30
2023-03-11T21:27:06.770Z,-0.30
2023-03-11T21:29:04.583Z,-0.30
2023-03-11T21:31:29.475Z,-0.31
2023-03-11T21:33:29.115Z,-0.31
2023-03-11T21:35:27.099Z,-0.31
2023-03-11T21:37:24.758Z,-0.31
2023-03-11T21:39:22.098Z,-0.30
2023-03-11T21:41:21.159Z,-0.29
2023-03-11T21:43:21.752Z,-0.29
2023-03-11T21:45:19.747Z,-0.28
2023-03-11T21:47:15.683Z,-0.28
2023-03-11T21:49:14.451Z,-0.27
2023-03-11T21:51:14.705Z,-0.27
2023-03-11T21:53:11.298Z,-0.27
2023-03-11T21:55:06.507Z,-0.28
2023-03-11T21:57:01.882Z,-0.30
2023-03-11T21:58:57.627Z,-0.31
2023-03-11T22:00:54.095Z,-0.32
2023-03-11T22:02:49.483Z,-0.33
2023-03-11T22:04:44.280Z,-0.35
2023-03-11T22:06:41.141Z,-0.36
2023-03-11T22:08:34.880Z,-0.37
2023-03-11T22:10:27.989Z,-0.38
2023-03-11T22:12:21.286Z,-0.38
2023-03-11T22:14:14.637Z,-0.39
2023-03-11T22:16:08.813Z,-0.41
2023-03-11T22:18:01.951Z,-0.41
2023-03-11T22:19:54.992Z,-0.42
2023-03-11T22:21:49.291Z,-0.43
2023-03-11T22:23:43.738Z,-0.44
2023-03-11T22:25:36.982Z,-0.44
2023-03-11T22:27:30.646Z,-0.44
2023-03-11T22:29:23.700Z,-0.44
2023-03-11T22:31:19.406Z,-0.44
2023-03-11T22:33:13.547Z,-0.44
2023-03-11T22:35:08.765Z,-0.44
2023-03-11T22:37:06.126Z,-0.44
2023-03-11T22:39:10.721Z,-0.45
2023-03-11T22:41:08.137Z,-0.44
2023-03-11T22:43:05.017Z,-0.46
2023-03-11T22:44:59.204Z,-0.46
2023-03-11T22:46:55.819Z,-0.46
2023-03-11T22:48:54.561Z,-0.45
2023-03-11T22:50:49.029Z,-0.45
2023-03-11T22:52:48.296Z,-0.44
2023-03-11T22:54:44.061Z,-0.44
2023-03-11T22:56:45.635Z,-0.43
2023-03-11T22:58:40.067Z,-0.42
2023-03-11T23:00:37.312Z,-0.40
2023-03-11T23:02:34.156Z,-0.40
2023-03-11T23:04:28.783Z,-0.41
2023-03-11T23:06:22.911Z,-0.40
2023-03-11T23:08:17.263Z,-0.41
2023-03-11T23:10:13.502Z,-0.41
2023-03-11T23:12:10.636Z,-0.42
2023-03-11T23:14:04.158Z,-0.41
2023-03-11T23:15:57.096Z,-0.43
2023-03-11T23:17:50.353Z,-0.43
2023-03-11T23:19:43.281Z,-0.44
2023-03-11T23:21:36.658Z,-0.46
2023-03-11T23:23:29.591Z,-0.48
2023-03-11T23:25:22.597Z,-0.49
2023-03-11T23:27:15.621Z,-0.48
2023-03-11T23:29:08.655Z,-0.48
2023-03-11T23:31:04.495Z,-0.48
2023-03-11T23:32:58.404Z,-0.48
2023-03-11T23:34:51.440Z,-0.47
2023-03-11T23:36:44.446Z,-0.47
2023-03-11T23:38:38.496Z,-0.47
2023-03-11T23:40:32.251Z,-0.47
2023-03-11T23:42:26.391Z,-0.47
2023-03-11T23:44:19.634Z,-0.46
2023-03-11T23:46:13.280Z,-0.46
2023-03-11T23:48:06.536Z,-0.47
2023-03-11T23:49:59.594Z,-0.47
2023-03-11T23:51:53.661Z,-0.48
2023-03-11T23:53:46.606Z,-0.49
2023-03-11T23:55:39.663Z,-0.50
2023-03-11T23:57:37.322Z,-0.51
2023-03-11T23:59:30.218Z,-0.52
